Latest Weather Observations for Melville Water

IDW60801

Issued at 6:32 am WST Friday 19 December 2014 (issued every 30 minutes, with the page automatically refreshed every 10 minutes)

About weather observations | Map of weather stations | Latest weather observations for WA | Other Formats
Station Details ID: 009091 Name: INNER DOLPHIN PYLON Lat: -31.99 Lon: 115.83 Height: 0.0 m
Data from the previous 72 hours. | See also: Recent months for locations in Western Australia
Date/Time
WST
Temp
°C
App
Temp
°C
Dew
Point
Rel
Hum
%
Delta-T
°C
Wind Press
QNH
hPa
Press
MSL
hPa
Rain
since 9 am
mm
Dir
 
Spd
km/h
Gust
km/h
Spd
kts
Gust
kts
19/06:30am - - - - - E 9 11 5 6 - - -
19/06:00am - - - - - SE 9 13 5 7 - - -
19/05:30am - - - - - ESE 15 19 8 10 - - -
19/05:00am - - - - - ESE 19 24 10 13 - - -
19/04:30am - - - - - ESE 20 24 11 13 - - -
19/04:00am - - - - - SE 15 17 8 9 - - -
19/03:30am - - - - - ESE 11 15 6 8 - - -
19/03:00am - - - - - E 2 4 1 2 - - -
19/02:30am - - - - - SE 9 15 5 8 - - -
19/02:00am - - - - - S 9 11 5 6 - - -
19/01:30am - - - - - S 7 13 4 7 - - -
19/01:00am - - - - - SSE 9 11 5 6 - - -
19/12:30am - - - - - SSE 9 17 5 9 - - -
19/12:00am - - - - - S 9 11 5 6 - - -
 
Date/Time
WST
Temp
°C
App
Temp
°C
Dew
Point
Rel
Hum
%
Delta-T
°C
Wind Press
QNH
hPa
Press
MSL
hPa
Rain
since 9 am
mm
Dir
 
Spd
km/h
Gust
km/h
Spd
kts
Gust
kts
18/11:30pm - - - - - S 11 17 6 9 - - -
18/11:00pm - - - - - S 13 20 7 11 - - -
18/10:30pm - - - - - S 15 22 8 12 - - -
18/10:00pm - - - - - S 17 22 9 12 - - -
18/09:30pm - - - - - S 17 22 9 12 - - -
18/09:00pm - - - - - S 15 20 8 11 - - -
18/08:30pm - - - - - S 13 20 7 11 - - -
18/08:00pm - - - - - SSW 19 26 10 14 - - -
18/07:30pm - - - - - SW 19 22 10 12 - - -
18/07:00pm - - - - - SSW 24 30 13 16 - - -
18/06:30pm - - - - - SSW 26 32 14 17 - - -
18/06:00pm - - - - - SW 26 32 14 17 - - -
18/05:30pm - - - - - SSW 30 37 16 20 - - -
18/05:00pm - - - - - SSW 32 39 17 21 - - -
18/04:30pm - - - - - SW 30 37 16 20 - - -
18/04:00pm - - - - - SW 33 39 18 21 - - -
18/03:30pm - - - - - SW 30 35 16 19 - - -
18/03:00pm - - - - - SW 28 32 15 17 - - -
18/02:30pm - - - - - SW 26 32 14 17 - - -
18/02:00pm - - - - - SW 26 30 14 16 - - -
18/01:30pm - - - - - SW 26 30 14 16 - - -
18/01:00pm - - - - - WSW 24 32 13 17 - - -
18/12:53pm - - - - - WSW 15 32 8 17 - - -
18/12:30pm - - - - - W 4 6 2 3 - - -
18/12:00pm - - - - - W 2 4 1 2 - - -
18/11:30am - - - - - SSE 6 13 3 7 - - -
18/11:00am - - - - - SSW 4 13 2 7 - - -
18/10:30am - - - - - E 13 22 7 12 - - -
18/10:00am - - - - - ESE 17 28 9 15 - - -
18/09:30am - - - - - ESE 22 32 12 17 - - -
18/09:00am - - - - - E 19 28 10 15 - - -
18/08:30am - - - - - E 22 30 12 16 - - -
18/08:00am - - - - - ENE 19 24 10 13 - - -
18/07:30am - - - - - E 20 28 11 15 - - -
18/07:00am - - - - - E 22 33 12 18 - - -
18/06:30am - - - - - ESE 22 28 12 15 - - -
18/06:00am - - - - - ESE 20 30 11 16 - - -
18/05:30am - - - - - ESE 24 32 13 17 - - -
18/05:00am - - - - - ESE 20 26 11 14 - - -
18/04:30am - - - - - ESE 19 22 10 12 - - -
18/04:00am - - - - - ESE 20 26 11 14 - - -
18/03:30am - - - - - SE 20 24 11 13 - - -
18/03:00am - - - - - SE 22 30 12 16 - - -
18/02:30am - - - - - SSE 13 19 7 10 - - -
18/02:00am - - - - - S 15 19 8 10 - - -
18/01:30am - - - - - S 15 20 8 11 - - -
18/01:00am - - - - - S 19 22 10 12 - - -
18/12:30am - - - - - S 19 24 10 13 - - -
18/12:00am - - - - - S 17 20 9 11 - - -
 
Date/Time
WST
Temp
°C
App
Temp
°C
Dew
Point
Rel
Hum
%
Delta-T
°C
Wind Press
QNH
hPa
Press
MSL
hPa
Rain
since 9 am
mm
Dir
 
Spd
km/h
Gust
km/h
Spd
kts
Gust
kts
17/11:30pm - - - - - S 17 22 9 12 - - -
17/11:00pm - - - - - S 20 26 11 14 - - -
17/10:30pm - - - - - S 22 30 12 16 - - -
17/10:00pm - - - - - S 15 19 8 10 - - -
17/09:30pm - - - - - S 13 20 7 11 - - -
17/09:00pm - - - - - S 20 30 11 16 - - -
17/08:30pm - - - - - S 24 33 13 18 - - -
17/08:00pm - - - - - SSW 20 30 11 16 - - -
17/07:30pm - - - - - SSW 28 33 15 18 - - -
17/07:00pm - - - - - SSW 32 46 17 25 - - -
17/06:30pm - - - - - SSW 32 41 17 22 - - -
17/06:00pm - - - - - SSW 37 46 20 25 - - -
17/05:30pm - - - - - SSW 39 48 21 26 - - -
17/05:00pm - - - - - SSW 37 44 20 24 - - -
17/04:30pm - - - - - SW 33 41 18 22 - - -
17/04:00pm - - - - - SW 35 43 19 23 - - -
17/03:30pm - - - - - SW 35 43 19 23 - - -
17/03:00pm - - - - - SW 35 44 19 24 - - -
17/02:30pm - - - - - SW 37 46 20 25 - - -
17/02:00pm - - - - - SW 35 44 19 24 - - -
17/01:30pm - - - - - SW 33 43 18 23 - - -
17/01:00pm - - - - - SW 33 41 18 22 - - -
17/12:30pm - - - - - SW 32 39 17 21 - - -
17/12:00pm - - - - - SW 32 41 17 22 - - -
17/11:30am - - - - - SW 28 35 15 19 - - -
17/11:00am - - - - - SSW 19 30 10 16 - - -
17/10:30am - - - - - S 11 22 6 12 - - -
17/10:00am - - - - - SSW 17 28 9 15 - - -
17/09:30am - - - - - S 20 28 11 15 - - -
17/09:00am - - - - - SE 19 26 10 14 - - -
17/08:30am - - - - - SSE 17 24 9 13 - - -
17/08:00am - - - - - SSE 22 32 12 17 - - -
17/07:30am - - - - - SSE 24 32 13 17 - - -
17/07:00am - - - - - SSE 24 33 13 18 - - -
17/06:30am - - - - - S 22 32 12 17 - - -
17/06:00am - - - - - SSW 17 22 9 12 - - -
17/05:30am - - - - - S 19 24 10 13 - - -
17/05:00am - - - - - S 19 26 10 14 - - -
17/04:30am - - - - - S 20 24 11 13 - - -
17/04:00am - - - - - S 20 24 11 13 - - -
17/03:30am - - - - - S 22 26 12 14 - - -
17/03:00am - - - - - S 22 28 12 15 - - -
17/02:30am - - - - - S 20 26 11 14 - - -
17/02:00am - - - - - S 24 32 13 17 - - -
17/01:30am - - - - - S 30 39 16 21 - - -
17/01:00am - - - - - S 26 32 14 17 - - -
17/12:30am - - - - - S 20 28 11 15 - - -
17/12:00am - - - - - S 22 30 12 16 - - -
 
Date/Time
WST
Temp
°C
App
Temp
°C
Dew
Point
Rel
Hum
%
Delta-T
°C
Wind Press
QNH
hPa
Press
MSL
hPa
Rain
since 9 am
mm
Dir
 
Spd
km/h
Gust
km/h
Spd
kts
Gust
kts
16/11:30pm - - - - - S 19 28 10 15 - - -
16/11:00pm - - - - - S 19 24 10 13 - - -
16/10:30pm - - - - - SSW 24 33 13 18 - - -
16/10:00pm - - - - - SSW 24 30 13 16 - - -
16/09:30pm - - - - - SSW 24 28 13 15 - - -
16/09:00pm - - - - - SSW 24 32 13 17 - - -
16/08:30pm - - - - - SSW 24 32 13 17 - - -
16/08:00pm - - - - - SSW 26 35 14 19 - - -
16/07:30pm - - - - - SW 28 33 15 18 - - -
16/07:00pm - - - - - SW 30 35 16 19 - - -
16/06:30pm - - - - - SW 28 33 15 18 - - -
16/06:00pm - - - - - SW 28 33 15 18 - - -
16/05:30pm - - - - - SSW 30 37 16 20 - - -
16/05:00pm - - - - - SW 26 33 14 18 - - -
16/04:30pm - - - - - SW 26 33 14 18 - - -
16/04:00pm - - - - - SW 28 33 15 18 - - -
16/03:30pm - - - - - SW 26 33 14 18 - - -
16/03:00pm - - - - - SW 28 41 15 22 - - -
16/02:30pm - - - - - WSW 28 33 15 18 - - -
16/02:00pm - - - - - SW 28 33 15 18 - - -
16/01:30pm - - - - - WSW 24 32 13 17 - - -
16/01:00pm - - - - - WSW 26 32 14 17 - - -
16/12:30pm - - - - - WSW 24 28 13 15 - - -
16/12:00pm - - - - - WSW 22 28 12 15 - - -
16/11:30am - - - - - SW 20 26 11 14 - - -
16/11:00am - - - - - SW 13 20 7 11 - - -
16/10:30am - - - - - WSW 6 7 3 4 - - -
16/10:00am - - - - - WSW 6 9 3 5 - - -
16/09:30am - - - - - WSW 2 6 1 3 - - -
16/09:00am - - - - - SW 2 6 1 3 - - -
16/08:30am - - - - - SE 11 17 6 9 - - -
16/08:00am - - - - - S 7 13 4 7 - - -
16/07:30am - - - - - SSE 11 19 6 10 - - -
16/07:00am - - - - - SE 13 19 7 10 - - -

Other Formats:

Comma delimited format used in spreadsheet applications
http://www.bom.gov.au/fwo/IDW60801/IDW60801.95620.axf

JavaScript Object Notation format (JSON) in row-major order
http://www.bom.gov.au/fwo/IDW60801/IDW60801.95620.json